Time;durP1;ratioP1;P1;durP2;ratioP2;P2;SDS_P1;SDS_P2;PMS_P1;PMS_P2;Temp;Humidity;BMP_temperature;BMP_pressure;BME280_temperature;BME280_humidity;BME280_pressure;Samples;Min_cycle;Max_cycle;Signal;HPM_P1;HPM_P2
2022/06/05 00:01:45;;;;;;;19.10;14.38;;;;;;;;;;4999432;28;20053;-75
2022/06/05 00:04:29;;;;;;;17.30;14.07;;;;;;;;;;4999728;28;20034;-74
2022/06/05 00:07:04;;;;;;;16.40;14.70;;;;;;;;;;4996676;28;20475;-74
2022/06/05 00:09:47;;;;;;;17.88;15.35;;;;;;;;;;4992213;28;20019;-74
2022/06/05 00:12:18;;;;;;;18.17;15.38;;;;;;;;;;4999699;28;20026;-74
2022/06/05 00:14:44;;;;;;;30.17;18.13;;;;;;;;;;5000376;28;20163;-74
2022/06/05 00:17:20;;;;;;;20.20;15.45;;;;;;;;;;4997345;28;20548;-75
2022/06/05 00:19:49;;;;;;;19.95;17.10;;;;;;;;;;4999899;28;20101;-75
2022/06/05 00:22:15;;;;;;;16.92;15.13;;;;;;;;;;4998072;28;20065;-74
2022/06/05 00:24:40;;;;;;;23.33;16.90;;;;;;;;;;4994513;28;20502;-74
2022/06/05 00:27:28;;;;;;;21.27;16.85;;;;;;;;;;5000346;28;20176;-74
2022/06/05 00:29:56;;;;;;;20.38;17.10;;;;;;;;;;4991628;28;20065;-75
2022/06/05 00:32:33;;;;;;;18.88;16.40;;;;;;;;;;4997886;28;20030;-74
2022/06/05 00:34:58;;;;;;;15.98;14.32;;;;;;;;;;4999461;28;20109;-75
2022/06/05 00:37:53;;;;;;;17.77;15.90;;;;;;;;;;4999494;28;20029;-74
2022/06/05 00:40:52;;;;;;;18.73;15.57;;;;;;;;;;5030731;28;20045;-75
2022/06/05 00:43:20;;;;;;;19.50;15.10;;;;;;;;;;4996440;28;20064;-74
2022/06/05 00:45:46;;;;;;;18.95;15.23;;;;;;;;;;4999490;28;20142;-74
2022/06/05 00:48:12;;;;;;;18.38;15.60;;;;;;;;;;4997500;28;20038;-74
2022/06/05 00:50:40;;;;;;;22.17;16.75;;;;;;;;;;5000595;28;20032;-74
2022/06/05 00:53:08;;;;;;;18.27;15.68;;;;;;;;;;5001106;28;20481;-74
2022/06/05 00:55:45;;;;;;;18.70;16.40;;;;;;;;;;4997054;28;20417;-74
2022/06/05 00:58:11;;;;;;;18.80;15.98;;;;;;;;;;4990289;28;20022;-74
2022/06/05 01:00:41;;;;;;;16.65;14.90;;;;;;;;;;5016722;28;20036;-75
2022/06/05 01:03:10;;;;;;;21.20;15.68;;;;;;;;;;4996743;28;20064;-74
2022/06/05 01:05:36;;;;;;;18.83;15.10;;;;;;;;;;5001329;28;20057;-74
2022/06/05 01:08:03;;;;;;;17.48;15.10;;;;;;;;;;4996503;28;20034;-75
2022/06/05 01:10:58;;;;;;;19.95;14.60;;;;;;;;;;5000846;28;20037;-75
2022/06/05 01:13:39;;;;;;;19.92;15.35;;;;;;;;;;5002569;28;20026;-74
2022/06/05 01:16:17;;;;;;;18.63;15.32;;;;;;;;;;4988275;28;20038;-74
2022/06/05 01:19:00;;;;;;;18.63;14.20;;;;;;;;;;5000287;28;20073;-74
2022/06/05 01:22:04;;;;;;;16.60;13.95;;;;;;;;;;4996018;28;20078;-74
2022/06/05 01:24:42;;;;;;;20.15;14.60;;;;;;;;;;4994103;28;20109;-74
2022/06/05 01:27:12;;;;;;;19.02;14.70;;;;;;;;;;4997600;28;20755;-74
2022/06/05 01:29:48;;;;;;;17.08;14.23;;;;;;;;;;4998435;28;20025;-74
2022/06/05 01:32:29;;;;;;;17.85;14.30;;;;;;;;;;4994539;28;20038;-74
2022/06/05 01:35:06;;;;;;;17.75;14.07;;;;;;;;;;4990485;28;20072;-74
2022/06/05 01:37:41;;;;;;;18.02;14.40;;;;;;;;;;5003218;28;20038;-75
2022/06/05 01:40:15;;;;;;;17.58;14.20;;;;;;;;;;5002588;28;20400;-74
2022/06/05 01:42:46;;;;;;;18.17;14.70;;;;;;;;;;5000536;28;20072;-74
2022/06/05 01:45:15;;;;;;;21.35;15.10;;;;;;;;;;5004517;28;20065;-75
2022/06/05 01:47:44;;;;;;;20.95;15.48;;;;;;;;;;4999184;28;20027;-74
2022/06/05 01:50:20;;;;;;;16.40;13.70;;;;;;;;;;4992637;28;20050;-74
2022/06/05 01:53:10;;;;;;;18.00;15.48;;;;;;;;;;4995181;28;20026;-74
2022/06/05 01:55:45;;;;;;;22.63;16.05;;;;;;;;;;5001088;28;20104;-74
2022/06/05 01:58:15;;;;;;;19.25;15.18;;;;;;;;;;5010668;28;20030;-74
2022/06/05 02:00:41;;;;;;;20.50;15.27;;;;;;;;;;4997805;28;20077;-74
2022/06/05 02:03:17;;;;;;;20.83;16.13;;;;;;;;;;5004604;28;20117;-74
2022/06/05 02:05:52;;;;;;;18.63;15.80;;;;;;;;;;4997236;28;20034;-73
2022/06/05 02:08:56;;;;;;;19.30;15.73;;;;;;;;;;5003974;28;20038;-75
2022/06/05 02:11:27;;;;;;;17.23;15.20;;;;;;;;;;5024259;28;20046;-73
2022/06/05 02:14:00;;;;;;;23.00;17.13;;;;;;;;;;4993198;28;20437;-74
2022/06/05 02:16:31;;;;;;;22.33;15.27;;;;;;;;;;5003804;28;20331;-73
2022/06/05 02:19:01;;;;;;;22.50;16.42;;;;;;;;;;4999149;28;20034;-74
2022/06/05 02:21:27;;;;;;;20.95;16.83;;;;;;;;;;5002461;28;20153;-73
2022/06/05 02:23:53;;;;;;;24.00;19.35;;;;;;;;;;5002126;28;20405;-73
2022/06/05 02:26:18;;;;;;;19.20;15.93;;;;;;;;;;5005314;28;20478;-73
2022/06/05 02:28:43;;;;;;;22.05;17.27;;;;;;;;;;5000410;28;20425;-73
2022/06/05 02:31:31;;;;;;;19.83;15.35;;;;;;;;;;5001121;28;20590;-72
2022/06/05 02:34:08;;;;;;;20.05;17.10;;;;;;;;;;5001935;28;20053;-73
2022/06/05 02:37:03;;;;;;;19.38;16.67;;;;;;;;;;5013599;28;20033;-73
2022/06/05 02:39:28;;;;;;;19.50;16.10;;;;;;;;;;4998147;28;20528;-72
2022/06/05 02:42:01;;;;;;;21.15;16.02;;;;;;;;;;5001126;28;20026;-74
2022/06/05 02:44:39;;;;;;;23.05;16.38;;;;;;;;;;4994477;28;20061;-74
2022/06/05 02:47:23;;;;;;;21.88;15.50;;;;;;;;;;4995988;28;20096;-73
2022/06/05 02:50:10;;;;;;;18.60;14.95;;;;;;;;;;4997468;28;20065;-73
2022/06/05 02:52:37;;;;;;;20.55;16.13;;;;;;;;;;5001243;28;20015;-74
2022/06/05 02:55:08;;;;;;;18.80;16.27;;;;;;;;;;5002343;28;20104;-75
2022/06/05 02:57:34;;;;;;;22.05;17.45;;;;;;;;;;4999128;28;20295;-72
2022/06/05 02:59:59;;;;;;;22.02;16.60;;;;;;;;;;4991817;28;20041;-72
2022/06/05 03:05:09;;;;;;;24.48;16.42;;;;;;;;;;4992287;28;20477;-73
2022/06/05 03:07:35;;;;;;;19.02;16.40;;;;;;;;;;5003524;28;20061;-73
2022/06/05 03:10:00;;;;;;;19.75;16.05;;;;;;;;;;4996062;28;20018;-74
2022/06/05 03:12:27;;;;;;;22.83;15.88;;;;;;;;;;5002651;28;20033;-74
2022/06/05 03:14:56;;;;;;;20.65;15.80;;;;;;;;;;4989684;28;20510;-75
2022/06/05 03:17:24;;;;;;;18.10;16.17;;;;;;;;;;4991664;28;20026;-73
2022/06/05 03:19:49;;;;;;;18.40;15.05;;;;;;;;;;5001924;28;20226;-72
2022/06/05 03:22:15;;;;;;;20.52;15.98;;;;;;;;;;5000936;28;20050;-73
2022/06/05 03:24:42;;;;;;;18.45;15.52;;;;;;;;;;4996535;28;20104;-73
2022/06/05 03:27:07;;;;;;;20.23;16.27;;;;;;;;;;5001882;28;20060;-72
2022/06/05 03:29:33;;;;;;;18.52;15.25;;;;;;;;;;4998220;28;20466;-74
2022/06/05 03:31:58;;;;;;;18.65;14.88;;;;;;;;;;5002576;28;20465;-74
2022/06/05 03:34:24;;;;;;;19.27;14.65;;;;;;;;;;4996276;28;20570;-73
2022/06/05 03:36:50;;;;;;;20.35;15.57;;;;;;;;;;5001949;28;20394;-73
2022/06/05 03:39:15;;;;;;;21.58;16.85;;;;;;;;;;4990873;28;20034;-73
2022/06/05 03:41:41;;;;;;;19.55;15.82;;;;;;;;;;5002205;28;20117;-73
2022/06/05 03:44:06;;;;;;;23.33;16.48;;;;;;;;;;4997046;28;20042;-73
2022/06/05 03:46:35;;;;;;;21.13;16.67;;;;;;;;;;5002925;28;20044;-73
2022/06/05 03:49:01;;;;;;;17.25;15.23;;;;;;;;;;4989005;28;20026;-73
2022/06/05 03:51:27;;;;;;;21.38;15.27;;;;;;;;;;4990420;28;20061;-73
2022/06/05 03:53:52;;;;;;;21.65;15.95;;;;;;;;;;5002740;28;20474;-73
2022/06/05 03:56:22;;;;;;;28.75;16.75;;;;;;;;;;4997329;28;20237;-73
2022/06/05 03:58:48;;;;;;;19.73;15.68;;;;;;;;;;4989044;28;20033;-73
2022/06/05 04:01:18;;;;;;;20.50;15.02;;;;;;;;;;4990074;28;20034;-74
2022/06/05 04:03:45;;;;;;;22.10;17.95;;;;;;;;;;4989861;28;20026;-74
2022/06/05 04:06:13;;;;;;;22.98;18.67;;;;;;;;;;5002860;28;20029;-74
2022/06/05 04:08:39;;;;;;;26.25;18.73;;;;;;;;;;4997189;28;20387;-74
2022/06/05 04:11:05;;;;;;;19.80;16.80;;;;;;;;;;5000887;28;20371;-74
2022/06/05 04:13:31;;;;;;;19.75;15.98;;;;;;;;;;5012300;28;20386;-73
2022/06/05 04:15:57;;;;;;;20.52;16.10;;;;;;;;;;5001498;28;20030;-73
2022/06/05 04:18:22;;;;;;;24.05;16.70;;;;;;;;;;5002819;28;20018;-72
2022/06/05 04:20:47;;;;;;;24.77;16.38;;;;;;;;;;4996357;28;20061;-72
2022/06/05 04:23:13;;;;;;;17.60;15.52;;;;;;;;;;4998157;28;20023;-73
2022/06/05 04:25:42;;;;;;;20.88;15.60;;;;;;;;;;5002209;28;20029;-72
2022/06/05 04:28:07;;;;;;;19.02;16.23;;;;;;;;;;4989414;28;20037;-72
2022/06/05 04:30:36;;;;;;;21.35;17.10;;;;;;;;;;4989695;28;20026;-73
2022/06/05 04:33:03;;;;;;;17.63;15.40;;;;;;;;;;4989717;28;20109;-73
2022/06/05 04:35:28;;;;;;;19.88;16.77;;;;;;;;;;5001046;28;20029;-73
2022/06/05 04:37:54;;;;;;;22.58;16.23;;;;;;;;;;5010836;28;20398;-72
2022/06/05 04:40:19;;;;;;;19.58;16.05;;;;;;;;;;4994552;28;20581;-73
2022/06/05 04:42:45;;;;;;;20.45;17.48;;;;;;;;;;4989501;28;20371;-74
2022/06/05 04:45:10;;;;;;;21.23;15.98;;;;;;;;;;5002537;28;20501;-73
2022/06/05 04:47:36;;;;;;;23.73;17.20;;;;;;;;;;4995842;28;20371;-73
2022/06/05 04:50:02;;;;;;;22.58;17.27;;;;;;;;;;5001453;28;20033;-74
2022/06/05 04:52:28;;;;;;;21.48;17.65;;;;;;;;;;4995945;28;20019;-74
2022/06/05 04:54:53;;;;;;;21.70;17.20;;;;;;;;;;5001324;28;20029;-74
2022/06/05 04:57:19;;;;;;;23.30;18.17;;;;;;;;;;4996490;28;20026;-74
2022/06/05 04:59:44;;;;;;;24.15;18.88;;;;;;;;;;5000099;28;20418;-74
2022/06/05 05:02:10;;;;;;;25.08;19.17;;;;;;;;;;5002265;28;20030;-73
2022/06/05 05:04:35;;;;;;;23.17;18.75;;;;;;;;;;4995480;28;20182;-74
2022/06/05 05:07:01;;;;;;;22.25;18.38;;;;;;;;;;4999395;28;20588;-73
2022/06/05 05:09:26;;;;;;;21.88;18.80;;;;;;;;;;4995630;28;20034;-74
2022/06/05 05:11:52;;;;;;;23.80;19.17;;;;;;;;;;4999446;28;20029;-73
2022/06/05 05:14:17;;;;;;;24.83;19.27;;;;;;;;;;4997154;28;20295;-73
2022/06/05 05:16:43;;;;;;;23.60;19.90;;;;;;;;;;4999763;28;20025;-73
2022/06/05 05:19:09;;;;;;;27.02;20.80;;;;;;;;;;4997971;28;20490;-73
2022/06/05 05:21:35;;;;;;;25.10;19.98;;;;;;;;;;4995109;28;20118;-73
2022/06/05 05:24:00;;;;;;;24.85;19.33;;;;;;;;;;5007026;28;20430;-73
2022/06/05 05:26:30;;;;;;;25.15;19.92;;;;;;;;;;4998350;28;20628;-73
2022/06/05 05:28:56;;;;;;;23.55;19.38;;;;;;;;;;4999756;28;20096;-73
2022/06/05 05:31:25;;;;;;;25.23;20.27;;;;;;;;;;4995861;28;20053;-73
2022/06/05 05:33:52;;;;;;;25.25;20.83;;;;;;;;;;4999859;28;20033;-73
2022/06/05 05:36:19;;;;;;;23.55;18.77;;;;;;;;;;4997188;28;20029;-73
2022/06/05 05:44:15;;;;;;;24.15;19.33;;;;;;;;;;4998376;28;20497;-73
2022/06/05 05:46:41;;;;;;;22.63;19.23;;;;;;;;;;4998288;28;20452;-74
2022/06/05 05:49:07;;;;;;;22.25;18.55;;;;;;;;;;5000225;28;20025;-74
2022/06/05 05:51:33;;;;;;;23.02;19.38;;;;;;;;;;4997944;28;20356;-73
2022/06/05 05:53:59;;;;;;;21.75;18.65;;;;;;;;;;4998101;28;20327;-73
2022/06/05 05:56:24;;;;;;;25.60;19.33;;;;;;;;;;4998394;28;20034;-74
2022/06/05 05:58:50;;;;;;;24.80;19.33;;;;;;;;;;4997957;28;20049;-74
2022/06/05 06:01:15;;;;;;;22.48;18.88;;;;;;;;;;4999213;28;20034;-73
2022/06/05 06:03:41;;;;;;;22.52;18.30;;;;;;;;;;5007695;28;20033;-73
2022/06/05 06:06:06;;;;;;;20.08;17.60;;;;;;;;;;5000052;28;20089;-74
2022/06/05 06:08:32;;;;;;;21.65;17.40;;;;;;;;;;4997017;28;20026;-74
2022/06/05 06:10:57;;;;;;;19.92;16.95;;;;;;;;;;5001677;28;20038;-74
2022/06/05 06:13:23;;;;;;;20.95;16.85;;;;;;;;;;4999741;28;20532;-73
2022/06/05 06:15:49;;;;;;;19.40;16.48;;;;;;;;;;4996538;28;20323;-74
2022/06/05 06:18:17;;;;;;;20.20;17.15;;;;;;;;;;4999767;28;20497;-75
2022/06/05 06:20:44;;;;;;;21.23;17.23;;;;;;;;;;4995192;28;20036;-73
2022/06/05 06:23:10;;;;;;;21.30;17.08;;;;;;;;;;5001741;28;20068;-73
2022/06/05 06:25:37;;;;;;;18.80;16.83;;;;;;;;;;5003111;28;20148;-74
2022/06/05 06:28:02;;;;;;;20.50;16.20;;;;;;;;;;4999977;28;20030;-73
2022/06/05 06:30:27;;;;;;;23.58;15.95;;;;;;;;;;5002596;28;20116;-75
2022/06/05 06:32:54;;;;;;;17.90;15.93;;;;;;;;;;5000297;28;20030;-73
2022/06/05 06:35:19;;;;;;;21.08;16.42;;;;;;;;;;5002651;28;20402;-73
2022/06/05 06:37:45;;;;;;;21.65;16.73;;;;;;;;;;4999957;28;20018;-73
2022/06/05 06:40:11;;;;;;;16.70;14.90;;;;;;;;;;5002986;28;20524;-74
2022/06/05 06:42:36;;;;;;;17.77;15.68;;;;;;;;;;4999902;28;20402;-74
2022/06/05 06:45:02;;;;;;;22.27;15.48;;;;;;;;;;5003151;28;20462;-74
2022/06/05 06:47:27;;;;;;;17.13;14.52;;;;;;;;;;4999758;28;20069;-74
2022/06/05 06:49:53;;;;;;;15.05;13.40;;;;;;;;;;5003143;28;20033;-74
2022/06/05 06:52:18;;;;;;;14.48;12.93;;;;;;;;;;4998772;28;20089;-74
2022/06/05 06:54:44;;;;;;;16.48;14.00;;;;;;;;;;5001841;28;20031;-74
2022/06/05 06:57:09;;;;;;;15.20;13.07;;;;;;;;;;4998489;28;20030;-74
2022/06/05 06:59:35;;;;;;;18.67;13.98;;;;;;;;;;5003770;28;20109;-74
2022/06/05 07:02:01;;;;;;;16.92;13.13;;;;;;;;;;4996869;28;20053;-75
2022/06/05 07:04:27;;;;;;;16.25;13.77;;;;;;;;;;5002430;28;20478;-74
2022/06/05 07:06:52;;;;;;;16.02;12.60;;;;;;;;;;5006067;28;20113;-74
2022/06/05 07:09:18;;;;;;;16.92;13.20;;;;;;;;;;5002553;28;20038;-74
2022/06/05 07:11:43;;;;;;;15.88;13.23;;;;;;;;;;4989614;28;20062;-75
2022/06/05 07:14:09;;;;;;;16.63;12.23;;;;;;;;;;4991096;28;20455;-75
2022/06/05 07:16:36;;;;;;;14.35;12.90;;;;;;;;;;5002520;28;20114;-74
2022/06/05 07:19:01;;;;;;;12.93;11.68;;;;;;;;;;4997417;28;20089;-73
2022/06/05 07:21:27;;;;;;;13.20;11.35;;;;;;;;;;5000104;28;20494;-74
2022/06/05 07:23:57;;;;;;;12.88;11.57;;;;;;;;;;5003106;28;20040;-73
2022/06/05 07:26:26;;;;;;;11.80;10.60;;;;;;;;;;4989919;28;20041;-73
2022/06/05 07:28:54;;;;;;;18.95;10.20;;;;;;;;;;5002780;28;20026;-73
2022/06/05 07:31:19;;;;;;;14.63;10.50;;;;;;;;;;5008894;28;20072;-73
2022/06/05 07:33:45;;;;;;;11.88;10.52;;;;;;;;;;5001024;28;20050;-73
2022/06/05 07:36:13;;;;;;;19.83;11.00;;;;;;;;;;4997660;28;20030;-73
2022/06/05 07:38:40;;;;;;;11.32;10.23;;;;;;;;;;5002628;28;20021;-74
2022/06/05 07:41:13;;;;;;;14.02;11.05;;;;;;;;;;5002238;28;20539;-73
2022/06/05 07:43:40;;;;;;;10.98;9.82;;;;;;;;;;4997033;28;20037;-73
2022/06/05 07:46:06;;;;;;;11.70;9.38;;;;;;;;;;5006663;28;20041;-74
2022/06/05 07:48:32;;;;;;;10.05;9.07;;;;;;;;;;5002018;28;20026;-74
2022/06/05 07:56:34;;;;;;;17.10;11.85;;;;;;;;;;4991660;28;20037;-74
2022/06/05 07:58:59;;;;;;;9.25;7.93;;;;;;;;;;5002431;28;20401;-74
2022/06/05 08:01:25;;;;;;;9.88;8.73;;;;;;;;;;5005266;28;20056;-74
2022/06/05 08:03:50;;;;;;;9.95;8.98;;;;;;;;;;5003010;28;20076;-74
2022/06/05 08:06:15;;;;;;;9.90;8.35;;;;;;;;;;5002661;28;20033;-73
2022/06/05 08:08:41;;;;;;;9.88;8.98;;;;;;;;;;4994658;28;20030;-75
2022/06/05 08:11:07;;;;;;;10.25;9.27;;;;;;;;;;5002843;28;20053;-74
2022/06/05 08:13:32;;;;;;;16.95;9.27;;;;;;;;;;5011210;28;20030;-73
2022/06/05 08:15:58;;;;;;;9.98;8.98;;;;;;;;;;5002366;28;20072;-73
2022/06/05 08:18:24;;;;;;;10.35;9.15;;;;;;;;;;4989820;28;20030;-74
2022/06/05 08:20:49;;;;;;;10.38;8.82;;;;;;;;;;5002029;28;20119;-74
2022/06/05 08:23:15;;;;;;;10.15;8.52;;;;;;;;;;4989462;28;20092;-74
2022/06/05 08:25:40;;;;;;;12.02;8.45;;;;;;;;;;4994988;28;20038;-74
2022/06/05 08:28:06;;;;;;;12.32;8.73;;;;;;;;;;5000684;28;20045;-74
2022/06/05 08:30:32;;;;;;;10.10;8.93;;;;;;;;;;5011737;28;20022;-74
2022/06/05 08:32:57;;;;;;;12.02;9.13;;;;;;;;;;5001503;28;20489;-74
2022/06/05 08:35:23;;;;;;;10.07;9.18;;;;;;;;;;4997624;28;20393;-75
2022/06/05 08:43:21;;;;;;;9.13;8.15;;;;;;;;;;4999472;28;20041;-74
2022/06/05 08:45:53;;;;;;;8.48;7.50;;;;;;;;;;5012429;28;20022;-74
2022/06/05 08:48:29;;;;;;;9.07;8.15;;;;;;;;;;4998987;28;20056;-75
2022/06/05 08:51:03;;;;;;;13.38;9.18;;;;;;;;;;5010903;28;20494;-74
2022/06/05 08:54:16;;;;;;;11.57;9.50;;;;;;;;;;4989728;28;20060;-74
2022/06/05 08:56:48;;;;;;;10.48;7.75;;;;;;;;;;5026641;28;20099;-74
2022/06/05 08:59:51;;;;;;;10.50;8.23;;;;;;;;;;4989324;28;20034;-73
2022/06/05 09:02:28;;;;;;;9.10;8.30;;;;;;;;;;4996525;28;20100;-74
2022/06/05 09:04:54;;;;;;;9.40;8.50;;;;;;;;;;4988303;28;20331;-72
2022/06/05 09:07:34;;;;;;;9.93;7.97;;;;;;;;;;5001224;28;20104;-73
2022/06/05 09:10:15;;;;;;;9.18;8.25;;;;;;;;;;4997405;28;20038;-74
2022/06/05 09:12:48;;;;;;;10.53;8.83;;;;;;;;;;5013033;28;20078;-74
2022/06/05 09:15:34;;;;;;;8.57;7.68;;;;;;;;;;5000522;28;20263;-72
2022/06/05 09:18:01;;;;;;;7.90;7.10;;;;;;;;;;4996412;28;20045;-73
2022/06/05 09:20:46;;;;;;;8.48;7.70;;;;;;;;;;5016255;28;20032;-72
2022/06/05 09:23:22;;;;;;;8.68;7.78;;;;;;;;;;4992880;28;20045;-74
2022/06/05 09:26:12;;;;;;;8.23;7.43;;;;;;;;;;4998398;28;20026;-73
2022/06/05 09:28:44;;;;;;;9.63;7.20;;;;;;;;;;4996696;28;20030;-74
2022/06/05 09:31:19;;;;;;;8.27;6.38;;;;;;;;;;4998954;28;20068;-74
2022/06/05 09:33:46;;;;;;;7.07;6.15;;;;;;;;;;4998564;28;20478;-74
2022/06/05 09:36:16;;;;;;;6.53;5.90;;;;;;;;;;4996798;28;20079;-73
2022/06/05 09:38:42;;;;;;;12.40;6.53;;;;;;;;;;5014339;28;20054;-74
2022/06/05 09:41:11;;;;;;;7.65;6.32;;;;;;;;;;4997679;28;20065;-74
2022/06/05 09:44:02;;;;;;;12.98;6.30;;;;;;;;;;4999245;28;20469;-75
2022/06/05 09:46:55;;;;;;;7.13;5.75;;;;;;;;;;4999172;28;20083;-75
2022/06/05 09:49:32;;;;;;;6.72;5.57;;;;;;;;;;4999660;28;20524;-75
2022/06/05 09:52:08;;;;;;;6.97;5.35;;;;;;;;;;5010167;28;20106;-74
2022/06/05 09:54:39;;;;;;;6.30;5.70;;;;;;;;;;4990101;28;20049;-74
2022/06/05 10:00:28;;;;;;;5.75;5.13;;;;;;;;;;4991994;28;20121;-74
2022/06/05 10:03:00;;;;;;;6.72;4.97;;;;;;;;;;4996042;28;20483;-74
2022/06/05 10:05:32;;;;;;;7.20;4.88;;;;;;;;;;5002812;28;20037;-73
2022/06/05 10:08:22;;;;;;;6.53;4.75;;;;;;;;;;5001843;28;20512;-74
2022/06/05 10:10:50;;;;;;;5.78;4.80;;;;;;;;;;4990749;28;20398;-74
2022/06/05 10:13:31;;;;;;;5.30;4.80;;;;;;;;;;4992859;28;20038;-75
2022/06/05 10:16:10;;;;;;;7.07;4.20;;;;;;;;;;5017503;28;20033;-74
2022/06/05 10:18:51;;;;;;;4.45;4.10;;;;;;;;;;5002123;28;20022;-73
2022/06/05 10:21:20;;;;;;;5.10;4.63;;;;;;;;;;4996718;28;20081;-74
2022/06/05 10:24:30;;;;;;;4.30;4.00;;;;;;;;;;4997176;28;20062;-73
2022/06/05 10:27:00;;;;;;;6.28;3.75;;;;;;;;;;5003934;28;20411;-74
2022/06/05 10:29:33;;;;;;;4.55;4.05;;;;;;;;;;5005080;28;20026;-74
2022/06/05 10:32:07;;;;;;;7.70;4.38;;;;;;;;;;4990787;28;20034;-73
2022/06/05 10:34:47;;;;;;;4.65;4.22;;;;;;;;;;5003491;28;20326;-75
2022/06/05 10:37:22;;;;;;;4.60;4.20;;;;;;;;;;5000324;28;20030;-75
2022/06/05 10:40:01;;;;;;;5.32;3.95;;;;;;;;;;5000244;28;20062;-74
2022/06/05 10:42:45;;;;;;;3.67;3.38;;;;;;;;;;4997751;28;20033;-72
2022/06/05 10:45:23;;;;;;;4.97;4.55;;;;;;;;;;5002620;28;20026;-73
2022/06/05 10:48:07;;;;;;;4.75;3.83;;;;;;;;;;5001171;28;20029;-73
2022/06/05 10:50:44;;;;;;;5.13;3.58;;;;;;;;;;5013376;28;20076;-74
2022/06/05 10:53:36;;;;;;;4.20;3.80;;;;;;;;;;4991570;28;20030;-74
2022/06/05 10:56:37;;;;;;;5.32;4.35;;;;;;;;;;5000491;28;20062;-73
2022/06/05 10:59:08;;;;;;;5.47;3.95;;;;;;;;;;5000332;28;20057;-73
2022/06/05 11:01:54;;;;;;;3.70;3.40;;;;;;;;;;4999432;28;20387;-74
2022/06/05 11:04:46;;;;;;;4.63;4.07;;;;;;;;;;5013697;28;20034;-74
2022/06/05 11:07:24;;;;;;;4.00;3.70;;;;;;;;;;5009267;28;20062;-73
2022/06/05 11:10:13;;;;;;;4.53;3.92;;;;;;;;;;5000091;28;20045;-74
2022/06/05 11:16:02;;;;;;;5.53;3.83;;;;;;;;;;5002513;28;20040;-74
2022/06/05 11:18:39;;;;;;;4.40;4.00;;;;;;;;;;4992640;28;20112;-74
2022/06/05 11:21:05;;;;;;;9.52;4.32;;;;;;;;;;5003210;28;20667;-74
2022/06/05 11:23:38;;;;;;;4.15;3.75;;;;;;;;;;4999413;28;20092;-75
2022/06/05 11:26:17;;;;;;;7.47;4.20;;;;;;;;;;5003583;28;20030;-73
2022/06/05 11:29:05;;;;;;;8.77;4.18;;;;;;;;;;5013946;28;20022;-74
2022/06/05 11:31:30;;;;;;;4.00;3.70;;;;;;;;;;4993869;28;20034;-74
2022/06/05 11:34:22;;;;;;;4.57;4.18;;;;;;;;;;5002783;28;20493;-74
2022/06/05 11:36:54;;;;;;;4.57;4.18;;;;;;;;;;5000952;28;20061;-76
2022/06/05 11:39:58;;;;;;;6.57;4.50;;;;;;;;;;4998763;28;20022;-74
2022/06/05 11:42:30;;;;;;;6.18;4.13;;;;;;;;;;4998131;28;20034;-74
2022/06/05 11:45:15;;;;;;;5.13;4.63;;;;;;;;;;5000884;28;20038;-74
2022/06/05 11:47:59;;;;;;;6.50;5.82;;;;;;;;;;4984180;28;20074;-75
2022/06/05 11:50:35;;;;;;;4.90;4.50;;;;;;;;;;4995331;28;20057;-74
2022/06/05 11:53:19;;;;;;;5.53;4.95;;;;;;;;;;4998858;28;20080;-74
2022/06/05 11:55:55;;;;;;;4.47;3.92;;;;;;;;;;4997447;28;20072;-73
2022/06/05 11:58:37;;;;;;;5.93;3.95;;;;;;;;;;5004126;28;20185;-74
2022/06/05 12:01:10;;;;;;;7.95;4.45;;;;;;;;;;5017582;28;20038;-74
2022/06/05 12:03:46;;;;;;;6.13;4.07;;;;;;;;;;4999044;28;20034;-75
2022/06/05 12:06:38;;;;;;;5.32;4.40;;;;;;;;;;5002157;28;20033;-75
2022/06/05 12:09:10;;;;;;;8.48;5.43;;;;;;;;;;5001113;28;20057;-74
2022/06/05 12:12:15;;;;;;;5.05;4.38;;;;;;;;;;4999439;28;20096;-76
2022/06/05 12:15:08;;;;;;;4.60;4.20;;;;;;;;;;5039768;28;20030;-74
2022/06/05 12:17:42;;;;;;;4.97;4.15;;;;;;;;;;5035214;28;20437;-74
2022/06/05 12:20:35;;;;;;;4.90;4.45;;;;;;;;;;5010709;28;20043;-74
2022/06/05 12:23:32;;;;;;;4.60;4.13;;;;;;;;;;4994367;28;20042;-74
2022/06/05 12:26:00;;;;;;;5.18;4.32;;;;;;;;;;5004761;28;20034;-74
2022/06/05 12:28:37;;;;;;;6.25;4.20;;;;;;;;;;4989902;28;20026;-74
2022/06/05 12:31:20;;;;;;;4.05;3.65;;;;;;;;;;4991969;28;20030;-73
2022/06/05 12:34:03;;;;;;;4.30;4.00;;;;;;;;;;4999211;28;20022;-74
2022/06/05 12:36:43;;;;;;;4.50;4.10;;;;;;;;;;5004235;28;20097;-73
2022/06/05 12:39:12;;;;;;;7.45;3.97;;;;;;;;;;5013535;28;20038;-73
2022/06/05 12:41:56;;;;;;;4.25;3.95;;;;;;;;;;5000549;28;20032;-73
2022/06/05 12:44:41;;;;;;;8.15;4.63;;;;;;;;;;4999807;28;20619;-74
2022/06/05 12:47:30;;;;;;;4.22;3.83;;;;;;;;;;5004599;28;20426;-74
2022/06/05 12:49:56;;;;;;;5.03;4.38;;;;;;;;;;4995147;28;20026;-74
2022/06/05 12:52:42;;;;;;;4.38;3.65;;;;;;;;;;5013830;28;20037;-74
2022/06/05 12:55:41;;;;;;;4.55;4.07;;;;;;;;;;4999637;28;20107;-75
2022/06/05 12:58:15;;;;;;;4.38;3.97;;;;;;;;;;5015706;28;20026;-74
2022/06/05 13:00:50;;;;;;;4.57;4.03;;;;;;;;;;4997190;28;20064;-74
2022/06/05 13:03:28;;;;;;;4.63;3.90;;;;;;;;;;4995788;28;20172;-74
2022/06/05 13:06:21;;;;;;;4.80;3.90;;;;;;;;;;4990377;28;20034;-74
2022/06/05 13:08:51;;;;;;;3.38;3.15;;;;;;;;;;4997117;28;20029;-74
2022/06/05 13:11:21;;;;;;;3.58;3.30;;;;;;;;;;4995452;28;20044;-74
2022/06/05 13:14:06;;;;;;;4.57;2.95;;;;;;;;;;5000543;28;20021;-74
2022/06/05 13:16:48;;;;;;;4.43;3.47;;;;;;;;;;5017792;28;20040;-74
2022/06/05 13:19:20;;;;;;;3.90;2.95;;;;;;;;;;4998147;28;20018;-74
2022/06/05 13:22:14;;;;;;;4.10;3.10;;;;;;;;;;4992049;28;20050;-75
2022/06/05 13:25:14;;;;;;;6.80;3.70;;;;;;;;;;5008507;28;20446;-74
2022/06/05 13:27:40;;;;;;;;;;;;;;;;;;5001548;28;20026;-74
2022/06/05 13:30:14;;;;;;;3.58;3.10;;;;;;;;;;4996388;28;19914;-75
2022/06/05 13:32:58;;;;;;;3.25;3.05;;;;;;;;;;4994893;28;20026;-75
2022/06/05 13:35:44;;;;;;;5.10;3.00;;;;;;;;;;5000091;28;20479;-75
2022/06/05 13:38:32;;;;;;;3.42;3.13;;;;;;;;;;5003459;28;20609;-75
2022/06/05 13:40:58;;;;;;;4.25;3.13;;;;;;;;;;5002707;28;20049;-75
2022/06/05 13:43:33;;;;;;;3.22;2.80;;;;;;;;;;5002740;28;20034;-75
2022/06/05 13:46:17;;;;;;;7.15;2.78;;;;;;;;;;4999717;28;20038;-75
2022/06/05 13:49:01;;;;;;;3.45;2.67;;;;;;;;;;5003532;28;20022;-75
2022/06/05 13:51:30;;;;;;;3.40;3.13;;;;;;;;;;4995665;28;20055;-74
2022/06/05 13:54:21;;;;;;;3.28;3.03;;;;;;;;;;5005703;28;20117;-73
2022/06/05 13:57:06;;;;;;;5.22;2.65;;;;;;;;;;5004279;28;20478;-74
2022/06/05 13:59:45;;;;;;;4.60;2.58;;;;;;;;;;4995178;28;20389;-75
2022/06/05 14:02:31;;;;;;;3.08;2.78;;;;;;;;;;5006010;28;20377;-73
2022/06/05 14:05:14;;;;;;;3.75;2.53;;;;;;;;;;5021057;28;20574;-74
2022/06/05 14:07:52;;;;;;;3.45;2.95;;;;;;;;;;5000925;28;20038;-74
2022/06/05 14:10:32;;;;;;;3.17;2.90;;;;;;;;;;5005514;28;20040;-73
2022/06/05 14:13:08;;;;;;;9.70;3.03;;;;;;;;;;5003498;28;20075;-74
2022/06/05 14:15:44;;;;;;;5.28;3.25;;;;;;;;;;5002244;28;20092;-76
2022/06/05 14:18:41;;;;;;;3.95;3.03;;;;;;;;;;5007838;28;20046;-75
2022/06/05 14:21:29;;;;;;;3.20;3.00;;;;;;;;;;5003872;28;20532;-74
2022/06/05 14:23:55;;;;;;;7.93;3.70;;;;;;;;;;5000764;28;20494;-73
2022/06/05 14:26:51;;;;;;;3.40;3.10;;;;;;;;;;4994747;28;20101;-73
2022/06/05 14:29:23;;;;;;;2.90;2.70;;;;;;;;;;5005266;28;20034;-73
2022/06/05 14:32:08;;;;;;;4.50;3.35;;;;;;;;;;5002686;28;20120;-75
2022/06/05 14:34:41;;;;;;;5.60;3.70;;;;;;;;;;4996143;28;20109;-74
2022/06/05 14:37:27;;;;;;;6.07;3.70;;;;;;;;;;5004804;28;20060;-75
2022/06/05 14:39:59;;;;;;;4.00;3.60;;;;;;;;;;5004632;28;20080;-74
2022/06/05 14:42:50;;;;;;;5.40;3.20;;;;;;;;;;5001239;28;20023;-74
2022/06/05 14:45:22;;;;;;;3.55;3.33;;;;;;;;;;4984875;28;20030;-73
2022/06/05 14:48:08;;;;;;;4.43;3.00;;;;;;;;;;5007932;28;20454;-75
2022/06/05 14:50:42;;;;;;;3.60;3.30;;;;;;;;;;4999499;28;20066;-74
2022/06/05 14:53:34;;;;;;;6.55;4.10;;;;;;;;;;5003221;28;20041;-74
2022/06/05 14:59:20;;;;;;;3.35;3.15;;;;;;;;;;4997701;28;20496;-74
2022/06/05 15:01:56;;;;;;;;;;;;;;;;;;4997496;28;20088;-74
2022/06/05 15:04:40;;;;;;;6.30;3.10;;;;;;;;;;4999624;28;19964;-75
2022/06/05 15:07:33;;;;;;;5.30;3.53;;;;;;;;;;5009130;28;20034;-74
2022/06/05 15:10:20;;;;;;;4.00;3.70;;;;;;;;;;4999456;28;20099;-74
2022/06/05 15:12:50;;;;;;;3.40;3.20;;;;;;;;;;4997205;28;20473;-74
2022/06/05 15:15:20;;;;;;;6.95;3.42;;;;;;;;;;4991802;28;20050;-74
2022/06/05 15:17:49;;;;;;;4.22;3.30;;;;;;;;;;5002872;28;20152;-74
2022/06/05 15:20:20;;;;;;;4.85;3.42;;;;;;;;;;4998654;28;20170;-75
2022/06/05 15:23:26;;;;;;;6.65;3.67;;;;;;;;;;5016480;28;20049;-74
2022/06/05 15:26:12;;;;;;;5.45;3.33;;;;;;;;;;4992303;28;20046;-75
2022/06/05 15:28:48;;;;;;;4.47;3.22;;;;;;;;;;5019174;28;20245;-73
2022/06/05 15:31:39;;;;;;;4.07;3.67;;;;;;;;;;5001316;28;20030;-75
2022/06/05 15:34:36;;;;;;;9.32;3.63;;;;;;;;;;4998197;28;20302;-74
2022/06/05 15:37:37;;;;;;;4.07;3.67;;;;;;;;;;4998317;28;20058;-75